Terminal Aerodrome Forecast
Issued by NWS

Home | Current Version | Previous Version | Text Only | Print | Product List | Glossary On
Versions: 1 2 3 4 5 6 7 8 9 10 11 12 13 14 15 16 17 18 19 20 21 22 23 24 25 26
995
FTUS43 KPAH 220520
TAFOWB
TAF
KOWB 220520Z 2206/2306 16009KT P6SM BKN250 WS020/18040KT
     FM221300 17015G23KT P6SM SCT035 BKN180
     FM221800 18016G24KT P6SM VCSH SCT050 BKN120
     FM222000 18012G19KT P6SM -SHRA SCT035 OVC050
     FM230000 29009KT 5SM -SHRA BR OVC015
     FM230400 30005KT 5SM BR OVC008=

USA.gov is the U.S. government's official web portal to all federal, state and local government web resources and services.